CSN658 KSFO-ZGGG
Flight info
| Callsign | CSN658 |
|---|---|
| Flight time | N/A |
| Altitude | 32000 |
| Route | GNNRR3 AMAKR DCT SHENU DCT 41N130W 4320N13528W 45N140W 47N145W 49N150W 52N160W/N0488F340 DCT RIZON DCT EXAMY DCT NIKLL/N0495F350 R220 NRKEY/N0490F360 R220 NUBDA/N0482F370 R220 NANAC/N0485F360 R220 IXE Y88 NAKTU/N0481F380 Y88 KCC Y28 ISAKY Y592 ONIKU A593 LAMEN/K0891F380 A593 AKARA/K0893S1160 A593 PUD A599 NXD W131 AKDIM A470 DUBGO W134 ELNEX A599 PLT W19 OLPAB |
| Aircraft | B77W/H-SDE1E2E3FGHIJ2J3J4J5M1RWXY/LB1D1 |
Departure
| Time | N/A |
|---|---|
| Airport | San Francisco International Airport (KSFO) |
Arrival
| Time | 2026-05-06 21:32 |
|---|---|
| Airport | Guangzhou Baiyun International Airport (ZGGG) |
| Time | Latitude | Longitude | Altitude | Speed | Heading |
|---|---|---|---|---|---|
| 2026-05-06 16:05 | 44.80849 | 150.83792 | 31934 ft | 435 kts | 231° |
| 2026-05-06 16:05 | 44.78763 | 150.80709 | 31935 ft | 435 kts | 231° |
| 2026-05-06 16:06 | 44.74593 | 150.74556 | 31935 ft | 435 kts | 231° |
| 2026-05-06 16:06 | 44.70412 | 150.68401 | 31935 ft | 435 kts | 231° |
| 2026-05-06 16:07 | 44.66227 | 150.62254 | 31935 ft | 436 kts | 231° |
| 2026-05-06 16:07 | 44.62008 | 150.56071 | 31935 ft | 440 kts | 231° |
| 2026-05-06 16:08 | 44.57799 | 150.49916 | 31935 ft | 439 kts | 231° |
| 2026-05-06 16:08 | 44.53563 | 150.43735 | 31935 ft | 439 kts | 231° |
| 2026-05-06 16:09 | 44.49318 | 150.37555 | 31935 ft | 439 kts | 231° |
| 2026-05-06 16:09 | 44.45070 | 150.31385 | 31935 ft | 439 kts | 231° |
| 2026-05-06 16:10 | 44.40827 | 150.25236 | 31934 ft | 440 kts | 231° |
| 2026-05-06 16:10 | 44.36598 | 150.19120 | 31935 ft | 440 kts | 231° |
| 2026-05-06 16:11 | 44.32338 | 150.12975 | 31935 ft | 440 kts | 231° |
| 2026-05-06 16:11 | 44.28082 | 150.06847 | 31906 ft | 440 kts | 231° |
| 2026-05-06 16:12 | 44.23809 | 150.00709 | 31905 ft | 440 kts | 231° |
| 2026-05-06 16:12 | 44.19534 | 149.94583 | 31934 ft | 442 kts | 231° |
| 2026-05-06 16:13 | 44.15236 | 149.88436 | 31935 ft | 443 kts | 230° |
| 2026-05-06 16:13 | 44.10965 | 149.82341 | 31935 ft | 443 kts | 230° |
| 2026-05-06 16:14 | 44.06663 | 149.76216 | 31935 ft | 443 kts | 230° |
| 2026-05-06 16:14 | 44.02359 | 149.70101 | 31935 ft | 443 kts | 230° |
| 2026-05-06 16:15 | 43.98045 | 149.63987 | 31935 ft | 443 kts | 230° |
| 2026-05-06 16:15 | 43.93732 | 149.57887 | 31935 ft | 443 kts | 230° |
| 2026-05-06 16:16 | 43.89414 | 149.51792 | 31934 ft | 443 kts | 230° |
| 2026-05-06 16:16 | 43.85093 | 149.45708 | 31935 ft | 443 kts | 230° |
| 2026-05-06 16:17 | 43.80793 | 149.39666 | 31935 ft | 443 kts | 230° |
| 2026-05-06 16:17 | 43.76467 | 149.33601 | 31935 ft | 443 kts | 230° |
| 2026-05-06 16:18 | 43.72129 | 149.27533 | 31935 ft | 443 kts | 230° |
| 2026-05-06 16:18 | 43.67780 | 149.21462 | 31935 ft | 446 kts | 230° |
| 2026-05-06 16:19 | 43.63397 | 149.15357 | 31935 ft | 447 kts | 230° |
| 2026-05-06 16:19 | 43.59019 | 149.09273 | 31935 ft | 447 kts | 230° |
| 2026-05-06 16:20 | 43.54634 | 149.03192 | 31935 ft | 447 kts | 230° |
| 2026-05-06 16:20 | 43.50276 | 148.97162 | 31934 ft | 447 kts | 230° |
| 2026-05-06 16:21 | 43.45885 | 148.91099 | 31935 ft | 447 kts | 230° |
| 2026-05-06 16:21 | 43.41489 | 148.85043 | 31935 ft | 447 kts | 230° |
| 2026-05-06 16:22 | 43.37093 | 148.79000 | 31935 ft | 447 kts | 229° |
| 2026-05-06 16:22 | 43.32684 | 148.72952 | 31935 ft | 447 kts | 229° |
| 2026-05-06 16:23 | 43.28277 | 148.66920 | 31935 ft | 447 kts | 229° |
| 2026-05-06 16:23 | 43.23889 | 148.60927 | 31935 ft | 450 kts | 229° |
| 2026-05-06 16:24 | 43.19424 | 148.54841 | 31935 ft | 454 kts | 229° |
| 2026-05-06 16:24 | 43.14935 | 148.48738 | 31935 ft | 453 kts | 229° |
| 2026-05-06 16:25 | 43.10454 | 148.42658 | 31935 ft | 453 kts | 229° |
| 2026-05-06 16:25 | 43.06731 | 148.37615 | 31935 ft | 453 kts | 229° |
| 2026-05-06 16:26 | 43.01487 | 148.30529 | 31935 ft | 453 kts | 229° |
| 2026-05-06 16:26 | 42.97020 | 148.24508 | 31935 ft | 453 kts | 229° |
| 2026-05-06 16:27 | 42.93283 | 148.19481 | 31934 ft | 453 kts | 229° |
| 2026-05-06 16:27 | 42.88790 | 148.13447 | 31935 ft | 453 kts | 228° |
| 2026-05-06 16:28 | 42.84287 | 148.07413 | 31935 ft | 453 kts | 228° |
| 2026-05-06 16:28 | 42.79782 | 148.01390 | 31935 ft | 455 kts | 228° |
| 2026-05-06 16:29 | 42.75264 | 147.95363 | 31935 ft | 458 kts | 228° |
| 2026-05-06 16:29 | 42.70709 | 147.89299 | 31935 ft | 458 kts | 228° |
| 2026-05-06 16:30 | 42.66918 | 147.84262 | 31935 ft | 458 kts | 228° |
| 2026-05-06 16:30 | 42.61576 | 147.77172 | 31934 ft | 458 kts | 228° |
| 2026-05-06 16:31 | 42.57063 | 147.71151 | 31935 ft | 458 kts | 227° |
| 2026-05-06 16:31 | 42.52490 | 147.65127 | 31934 ft | 458 kts | 227° |
| 2026-05-06 16:32 | 42.47904 | 147.59107 | 31935 ft | 458 kts | 227° |
| 2026-05-06 16:32 | 42.43327 | 147.53108 | 31935 ft | 458 kts | 227° |
| 2026-05-06 16:33 | 42.38740 | 147.47101 | 31935 ft | 458 kts | 227° |
| 2026-05-06 16:34 | 42.31427 | 147.37547 | 31935 ft | 460 kts | 227° |
| 2026-05-06 16:34 | 42.26796 | 147.31517 | 31935 ft | 462 kts | 227° |
| 2026-05-06 16:35 | 42.22194 | 147.25535 | 31935 ft | 462 kts | 227° |
| 2026-05-06 16:35 | 42.17563 | 147.19526 | 31934 ft | 462 kts | 227° |
| 2026-05-06 16:36 | 42.12951 | 147.13501 | 31935 ft | 461 kts | 228° |
| 2026-05-06 16:36 | 42.08348 | 147.07452 | 31935 ft | 462 kts | 227° |
| 2026-05-06 16:37 | 42.03710 | 147.01468 | 31935 ft | 462 kts | 227° |
| 2026-05-06 16:37 | 41.99063 | 146.95493 | 31935 ft | 462 kts | 227° |
| 2026-05-06 16:38 | 41.94413 | 146.89521 | 31935 ft | 462 kts | 227° |
| 2026-05-06 16:38 | 41.89798 | 146.83597 | 31935 ft | 462 kts | 227° |
| 2026-05-06 16:39 | 41.85152 | 146.77651 | 31936 ft | 458 kts | 227° |
| 2026-05-06 16:39 | 41.80557 | 146.71785 | 31934 ft | 454 kts | 227° |
| 2026-05-06 16:40 | 41.75978 | 146.65956 | 31935 ft | 455 kts | 227° |
| 2026-05-06 16:40 | 41.71385 | 146.60120 | 31935 ft | 455 kts | 227° |
| 2026-05-06 16:41 | 41.66787 | 146.54290 | 31935 ft | 455 kts | 227° |
| 2026-05-06 16:41 | 41.62228 | 146.48435 | 31964 ft | 455 kts | 228° |
| 2026-05-06 16:42 | 41.57688 | 146.42640 | 31964 ft | 454 kts | 227° |
| 2026-05-06 16:42 | 41.53102 | 146.36821 | 31965 ft | 455 kts | 227° |
| 2026-05-06 16:43 | 41.48505 | 146.31009 | 31964 ft | 455 kts | 227° |
| 2026-05-06 16:43 | 41.43907 | 146.25210 | 31965 ft | 455 kts | 227° |
| 2026-05-06 16:44 | 41.39331 | 146.19452 | 31964 ft | 455 kts | 227° |
| 2026-05-06 16:44 | 41.34711 | 146.13650 | 31964 ft | 459 kts | 227° |
| 2026-05-06 16:45 | 41.30048 | 146.07808 | 31964 ft | 460 kts | 227° |
| 2026-05-06 16:45 | 41.25391 | 146.01985 | 31964 ft | 459 kts | 227° |
| 2026-05-06 16:46 | 41.20758 | 145.96203 | 31964 ft | 459 kts | 227° |
| 2026-05-06 16:46 | 41.16097 | 145.90398 | 31965 ft | 459 kts | 227° |
| 2026-05-06 16:47 | 41.12219 | 145.85577 | 31965 ft | 459 kts | 227° |
| 2026-05-06 16:47 | 41.07552 | 145.79787 | 31964 ft | 459 kts | 227° |
| 2026-05-06 16:48 | 41.02881 | 145.74003 | 31964 ft | 459 kts | 227° |
| 2026-05-06 16:48 | 40.98990 | 145.69194 | 31964 ft | 459 kts | 227° |
| 2026-05-06 16:49 | 40.93557 | 145.62493 | 31964 ft | 459 kts | 227° |
| 2026-05-06 16:49 | 40.88079 | 145.55752 | 31964 ft | 459 kts | 227° |
| 2026-05-06 16:50 | 40.84205 | 145.50996 | 31964 ft | 459 kts | 227° |
| 2026-05-06 16:50 | 40.79523 | 145.45255 | 31965 ft | 460 kts | 227° |
| 2026-05-06 16:51 | 40.74825 | 145.39508 | 31964 ft | 460 kts | 227° |
| 2026-05-06 16:51 | 40.70125 | 145.33770 | 31964 ft | 460 kts | 227° |
| 2026-05-06 16:52 | 40.65423 | 145.28039 | 31965 ft | 460 kts | 227° |
| 2026-05-06 16:52 | 40.60741 | 145.22298 | 31964 ft | 460 kts | 227° |
| 2026-05-06 16:53 | 40.56060 | 145.16625 | 31965 ft | 460 kts | 227° |
| 2026-05-06 16:53 | 40.51341 | 145.10927 | 31964 ft | 460 kts | 227° |
| 2026-05-06 16:54 | 40.46621 | 145.05236 | 31965 ft | 460 kts | 227° |
| 2026-05-06 16:54 | 40.41907 | 144.99557 | 31964 ft | 460 kts | 227° |
| 2026-05-06 16:55 | 40.37180 | 144.93881 | 31964 ft | 460 kts | 227° |
| 2026-05-06 16:55 | 40.32472 | 144.88245 | 31964 ft | 463 kts | 226° |
| 2026-05-06 16:56 | 40.27681 | 144.82523 | 31980 ft | 468 kts | 226° |
| 2026-05-06 16:56 | 40.25257 | 144.79634 | 32127 ft | 473 kts | 226° |
| 2026-05-06 16:56 | 40.22819 | 144.76731 | 32543 ft | 472 kts | 226° |
| 2026-05-06 16:56 | 40.20393 | 144.73843 | 32993 ft | 469 kts | 227° |
| 2026-05-06 16:57 | 40.17979 | 144.70974 | 33433 ft | 467 kts | 227° |
| 2026-05-06 16:57 | 40.15584 | 144.68120 | 33821 ft | 466 kts | 227° |
| 2026-05-06 16:57 | 40.13227 | 144.65277 | 33954 ft | 467 kts | 227° |
| 2026-05-06 16:58 | 40.08457 | 144.59561 | 33964 ft | 464 kts | 227° |
| 2026-05-06 16:58 | 40.03684 | 144.53879 | 33965 ft | 464 kts | 227° |
| 2026-05-06 16:59 | 39.98900 | 144.48206 | 33964 ft | 464 kts | 227° |
| 2026-05-06 16:59 | 39.94113 | 144.42543 | 33990 ft | 464 kts | 227° |
| 2026-05-06 17:00 | 39.89356 | 144.36927 | 33994 ft | 464 kts | 227° |
| 2026-05-06 17:00 | 39.84567 | 144.31286 | 33994 ft | 464 kts | 227° |
| 2026-05-06 17:01 | 39.79772 | 144.25649 | 33994 ft | 464 kts | 227° |
| 2026-05-06 17:01 | 39.74972 | 144.20017 | 33994 ft | 464 kts | 227° |
| 2026-05-06 17:02 | 39.70170 | 144.14393 | 33994 ft | 464 kts | 227° |
| 2026-05-06 17:02 | 39.65379 | 144.08793 | 33994 ft | 464 kts | 227° |
| 2026-05-06 17:03 | 39.60579 | 144.03194 | 33994 ft | 464 kts | 227° |
| 2026-05-06 17:03 | 39.55772 | 143.97598 | 33994 ft | 464 kts | 227° |
| 2026-05-06 17:04 | 39.50971 | 143.92019 | 33994 ft | 464 kts | 226° |
| 2026-05-06 17:04 | 39.46191 | 143.86475 | 33994 ft | 464 kts | 226° |
| 2026-05-06 17:05 | 39.41379 | 143.80905 | 33994 ft | 464 kts | 226° |
| 2026-05-06 17:05 | 39.36567 | 143.75346 | 33994 ft | 464 kts | 226° |
| 2026-05-06 17:06 | 39.31752 | 143.69793 | 33994 ft | 464 kts | 226° |
| 2026-05-06 17:06 | 39.26957 | 143.64275 | 34001 ft | 464 kts | 226° |
| 2026-05-06 17:07 | 39.22134 | 143.58735 | 34023 ft | 464 kts | 226° |
| 2026-05-06 17:07 | 39.17304 | 143.53197 | 34023 ft | 464 kts | 226° |
| 2026-05-06 17:08 | 39.12487 | 143.47656 | 34024 ft | 464 kts | 227° |
| 2026-05-06 17:08 | 39.07690 | 143.42161 | 34023 ft | 464 kts | 226° |
| 2026-05-06 17:09 | 39.02853 | 143.36661 | 34024 ft | 464 kts | 226° |
| 2026-05-06 17:09 | 38.98007 | 143.31161 | 34029 ft | 464 kts | 226° |
| 2026-05-06 17:10 | 38.93168 | 143.25676 | 34053 ft | 464 kts | 226° |
| 2026-05-06 17:10 | 38.88384 | 143.20120 | 34052 ft | 461 kts | 229° |
| 2026-05-06 17:11 | 38.83900 | 143.14227 | 34053 ft | 461 kts | 231° |
| 2026-05-06 17:11 | 38.79451 | 143.08287 | 34053 ft | 461 kts | 230° |
| 2026-05-06 17:12 | 38.74956 | 143.02410 | 34053 ft | 461 kts | 230° |
| 2026-05-06 17:12 | 38.70475 | 142.96592 | 34053 ft | 461 kts | 230° |
| 2026-05-06 17:13 | 38.65952 | 142.90730 | 34052 ft | 463 kts | 230° |
| 2026-05-06 17:13 | 38.61434 | 142.84819 | 34053 ft | 465 kts | 230° |
| 2026-05-06 17:14 | 38.56884 | 142.78921 | 34053 ft | 465 kts | 230° |
| 2026-05-06 17:14 | 38.52377 | 142.73066 | 34054 ft | 465 kts | 230° |
| 2026-05-06 17:15 | 38.47819 | 142.67182 | 34053 ft | 465 kts | 230° |
| 2026-05-06 17:15 | 38.43256 | 142.61331 | 34053 ft | 465 kts | 230° |
| 2026-05-06 17:16 | 38.38690 | 142.55490 | 34053 ft | 465 kts | 230° |
| 2026-05-06 17:16 | 38.34113 | 142.49640 | 34053 ft | 465 kts | 230° |
| 2026-05-06 17:17 | 38.29558 | 142.43771 | 34053 ft | 465 kts | 230° |
| 2026-05-06 17:17 | 38.25067 | 142.37918 | 34053 ft | 465 kts | 230° |
| 2026-05-06 17:18 | 38.20560 | 142.32010 | 34054 ft | 465 kts | 231° |
| 2026-05-06 17:18 | 38.16507 | 142.26722 | 34053 ft | 465 kts | 230° |
| 2026-05-06 17:19 | 38.11968 | 142.20850 | 34053 ft | 466 kts | 230° |
| 2026-05-06 17:19 | 38.07416 | 142.14974 | 34053 ft | 467 kts | 230° |
| 2026-05-06 17:20 | 38.02863 | 142.09103 | 34053 ft | 466 kts | 230° |
| 2026-05-06 17:20 | 37.98311 | 142.03241 | 34053 ft | 466 kts | 230° |
| 2026-05-06 17:21 | 37.93778 | 141.97426 | 34053 ft | 466 kts | 230° |
| 2026-05-06 17:21 | 37.89208 | 141.91576 | 34053 ft | 467 kts | 230° |
| 2026-05-06 17:22 | 37.84637 | 141.85737 | 34053 ft | 467 kts | 230° |
| 2026-05-06 17:22 | 37.80065 | 141.79906 | 34053 ft | 467 kts | 230° |
| 2026-05-06 17:23 | 37.75489 | 141.74071 | 34053 ft | 466 kts | 230° |
| 2026-05-06 17:23 | 37.70974 | 141.68256 | 34053 ft | 466 kts | 230° |
| 2026-05-06 17:24 | 37.66403 | 141.62418 | 34077 ft | 467 kts | 230° |
| 2026-05-06 17:24 | 37.61808 | 141.56575 | 34082 ft | 471 kts | 230° |
| 2026-05-06 17:25 | 37.57179 | 141.50704 | 34083 ft | 470 kts | 230° |
| 2026-05-06 17:25 | 37.52591 | 141.44897 | 34082 ft | 470 kts | 230° |
| 2026-05-06 17:26 | 37.47967 | 141.39055 | 34083 ft | 470 kts | 230° |
| 2026-05-06 17:26 | 37.43339 | 141.33218 | 34082 ft | 470 kts | 230° |
| 2026-05-06 17:27 | 37.38708 | 141.27390 | 34082 ft | 470 kts | 230° |
| 2026-05-06 17:27 | 37.34126 | 141.21590 | 34083 ft | 470 kts | 230° |
| 2026-05-06 17:28 | 37.29489 | 141.15776 | 34082 ft | 470 kts | 230° |
| 2026-05-06 17:28 | 37.24844 | 141.09977 | 34083 ft | 470 kts | 230° |
| 2026-05-06 17:29 | 37.20194 | 141.04181 | 34082 ft | 471 kts | 230° |
| 2026-05-06 17:29 | 37.15577 | 140.98429 | 34082 ft | 470 kts | 230° |
| 2026-05-06 17:30 | 37.11265 | 140.92327 | 34082 ft | 466 kts | 236° |
| 2026-05-06 17:30 | 37.07279 | 140.85911 | 34083 ft | 468 kts | 237° |
| 2026-05-06 17:31 | 37.03244 | 140.79515 | 34082 ft | 468 kts | 236° |
| 2026-05-06 17:31 | 36.99160 | 140.73172 | 34082 ft | 468 kts | 236° |
| 2026-05-06 17:32 | 36.95061 | 140.66832 | 34083 ft | 468 kts | 236° |
| 2026-05-06 17:32 | 36.91033 | 140.60498 | 34082 ft | 468 kts | 236° |
| 2026-05-06 17:33 | 36.86941 | 140.54168 | 34083 ft | 468 kts | 236° |
| 2026-05-06 17:33 | 36.82827 | 140.47849 | 34082 ft | 468 kts | 236° |
| 2026-05-06 17:34 | 36.78716 | 140.41545 | 34083 ft | 468 kts | 235° |
| 2026-05-06 17:34 | 36.74601 | 140.35229 | 34083 ft | 467 kts | 236° |
| 2026-05-06 17:35 | 36.70922 | 140.28605 | 34083 ft | 463 kts | 242° |
| 2026-05-06 17:35 | 36.67514 | 140.21782 | 34083 ft | 464 kts | 242° |
| 2026-05-06 17:36 | 36.62221 | 140.11745 | 34083 ft | 464 kts | 241° |
| 2026-05-06 17:36 | 36.58663 | 140.05022 | 34082 ft | 464 kts | 241° |
| 2026-05-06 17:37 | 36.55118 | 139.98306 | 34083 ft | 464 kts | 241° |
| 2026-05-06 17:37 | 36.51560 | 139.91608 | 34082 ft | 464 kts | 241° |
| 2026-05-06 17:38 | 36.48013 | 139.84962 | 34081 ft | 465 kts | 240° |
| 2026-05-06 17:38 | 36.44185 | 139.78466 | 34083 ft | 466 kts | 237° |
| 2026-05-06 17:39 | 36.40344 | 139.71986 | 34082 ft | 465 kts | 238° |
| 2026-05-06 17:39 | 36.36538 | 139.65480 | 34083 ft | 465 kts | 238° |
| 2026-05-06 17:40 | 36.32765 | 139.58968 | 34083 ft | 465 kts | 239° |
| 2026-05-06 17:40 | 36.28975 | 139.52478 | 34082 ft | 463 kts | 238° |
| 2026-05-06 17:41 | 36.25178 | 139.46018 | 34105 ft | 463 kts | 238° |
| 2026-05-06 17:41 | 36.21404 | 139.39607 | 34112 ft | 463 kts | 238° |
| 2026-05-06 17:42 | 36.17609 | 139.33149 | 34111 ft | 462 kts | 239° |
| 2026-05-06 17:42 | 36.14467 | 139.26269 | 34110 ft | 457 kts | 248° |
| 2026-05-06 17:43 | 36.11901 | 139.19077 | 34116 ft | 456 kts | 250° |
| 2026-05-06 17:43 | 36.09289 | 139.11910 | 34112 ft | 457 kts | 249° |
| 2026-05-06 17:44 | 36.06632 | 139.04829 | 34112 ft | 457 kts | 249° |
| 2026-05-06 17:44 | 36.03954 | 138.97703 | 34141 ft | 457 kts | 249° |
| 2026-05-06 17:45 | 36.01277 | 138.90584 | 34142 ft | 457 kts | 249° |
| 2026-05-06 17:45 | 35.98590 | 138.83384 | 34109 ft | 466 kts | 249° |
| 2026-05-06 17:46 | 35.95836 | 138.76082 | 34112 ft | 470 kts | 249° |
| 2026-05-06 17:46 | 35.93088 | 138.68831 | 34112 ft | 468 kts | 248° |
| 2026-05-06 17:47 | 35.90328 | 138.61556 | 34112 ft | 468 kts | 248° |
| 2026-05-06 17:47 | 35.87577 | 138.54272 | 34112 ft | 468 kts | 248° |
| 2026-05-06 17:48 | 35.84801 | 138.47009 | 34112 ft | 468 kts | 248° |
| 2026-05-06 17:48 | 35.82014 | 138.39748 | 34112 ft | 468 kts | 248° |
| 2026-05-06 17:49 | 35.79224 | 138.32487 | 34112 ft | 468 kts | 248° |
| 2026-05-06 17:49 | 35.76458 | 138.25226 | 34112 ft | 468 kts | 248° |
| 2026-05-06 17:50 | 35.73659 | 138.17973 | 34112 ft | 468 kts | 248° |
| 2026-05-06 17:50 | 35.70876 | 138.10794 | 34112 ft | 467 kts | 248° |
| 2026-05-06 17:51 | 35.68082 | 138.03590 | 34112 ft | 466 kts | 248° |
| 2026-05-06 17:51 | 35.65356 | 137.96349 | 34113 ft | 465 kts | 250° |
| 2026-05-06 17:52 | 35.62775 | 137.89049 | 34112 ft | 466 kts | 249° |
| 2026-05-06 17:52 | 35.60144 | 137.81773 | 34112 ft | 465 kts | 249° |
| 2026-05-06 17:53 | 35.57476 | 137.74521 | 34112 ft | 466 kts | 249° |
| 2026-05-06 17:53 | 35.54748 | 137.67353 | 34112 ft | 466 kts | 248° |
| 2026-05-06 17:54 | 35.51994 | 137.60140 | 34112 ft | 466 kts | 248° |
| 2026-05-06 17:54 | 35.49239 | 137.52929 | 34086 ft | 466 kts | 248° |
| 2026-05-06 17:55 | 35.46488 | 137.45726 | 34082 ft | 466 kts | 248° |
| 2026-05-06 17:55 | 35.43760 | 137.38488 | 34082 ft | 471 kts | 248° |
| 2026-05-06 17:56 | 35.40977 | 137.31168 | 34083 ft | 475 kts | 248° |
| 2026-05-06 17:56 | 35.38213 | 137.23860 | 34081 ft | 474 kts | 249° |
| 2026-05-06 17:57 | 35.35582 | 137.16450 | 34082 ft | 474 kts | 249° |
| 2026-05-06 17:57 | 35.32919 | 137.09070 | 34082 ft | 474 kts | 249° |
| 2026-05-06 17:58 | 35.30236 | 137.01690 | 34083 ft | 474 kts | 249° |
| 2026-05-06 17:58 | 35.27555 | 136.94322 | 34108 ft | 474 kts | 249° |
| 2026-05-06 17:59 | 35.25274 | 136.86781 | 34113 ft | 471 kts | 256° |
| 2026-05-06 17:59 | 35.23601 | 136.79101 | 34112 ft | 470 kts | 259° |
| 2026-05-06 18:00 | 35.21966 | 136.71363 | 34112 ft | 470 kts | 258° |
| 2026-05-06 18:00 | 35.20229 | 136.63625 | 34110 ft | 474 kts | 257° |
| 2026-05-06 18:01 | 35.18513 | 136.55789 | 34112 ft | 478 kts | 257° |
| 2026-05-06 18:01 | 35.16735 | 136.47955 | 34112 ft | 478 kts | 257° |
| 2026-05-06 18:02 | 35.14941 | 136.40138 | 34112 ft | 477 kts | 257° |
| 2026-05-06 18:02 | 35.13155 | 136.32368 | 34112 ft | 477 kts | 257° |
| 2026-05-06 18:03 | 35.11359 | 136.24544 | 34112 ft | 477 kts | 257° |
| 2026-05-06 18:03 | 35.09586 | 136.16707 | 34096 ft | 478 kts | 257° |
| 2026-05-06 18:04 | 35.08097 | 136.10215 | 34083 ft | 477 kts | 257° |
| 2026-05-06 18:04 | 35.06304 | 136.02410 | 34082 ft | 477 kts | 257° |
| 2026-05-06 18:05 | 35.04505 | 135.94607 | 34082 ft | 477 kts | 257° |
| 2026-05-06 18:05 | 35.02697 | 135.86856 | 34083 ft | 477 kts | 256° |
| 2026-05-06 18:06 | 35.00938 | 135.79042 | 34082 ft | 476 kts | 258° |
| 2026-05-06 18:06 | 34.99539 | 135.71156 | 34082 ft | 475 kts | 261° |
| 2026-05-06 18:07 | 34.98156 | 135.63260 | 34082 ft | 476 kts | 259° |
| 2026-05-06 18:07 | 34.96679 | 135.55397 | 34082 ft | 476 kts | 259° |
| 2026-05-06 18:08 | 34.95195 | 135.47530 | 34083 ft | 476 kts | 259° |
| 2026-05-06 18:08 | 34.93710 | 135.39664 | 34082 ft | 476 kts | 259° |
| 2026-05-06 18:09 | 34.92225 | 135.31801 | 34083 ft | 476 kts | 259° |
| 2026-05-06 18:09 | 34.90700 | 135.24005 | 34082 ft | 476 kts | 258° |
| 2026-05-06 18:10 | 34.89149 | 135.16169 | 34083 ft | 476 kts | 258° |
| 2026-05-06 18:10 | 34.87592 | 135.08327 | 34082 ft | 476 kts | 258° |
| 2026-05-06 18:11 | 34.86030 | 135.00461 | 34082 ft | 478 kts | 258° |
| 2026-05-06 18:11 | 34.84555 | 134.92567 | 34083 ft | 478 kts | 259° |
| 2026-05-06 18:12 | 34.83093 | 134.84715 | 34082 ft | 478 kts | 258° |
| 2026-05-06 18:12 | 34.81597 | 134.76815 | 34083 ft | 478 kts | 258° |
| 2026-05-06 18:13 | 34.80099 | 134.68924 | 34082 ft | 478 kts | 258° |
| 2026-05-06 18:13 | 34.78600 | 134.61033 | 34082 ft | 478 kts | 258° |
| 2026-05-06 18:14 | 34.77085 | 134.53209 | 34083 ft | 478 kts | 258° |
| 2026-05-06 18:14 | 34.75553 | 134.45329 | 34082 ft | 478 kts | 258° |
| 2026-05-06 18:15 | 34.74057 | 134.37440 | 34083 ft | 478 kts | 258° |
| 2026-05-06 18:15 | 34.72544 | 134.29572 | 34082 ft | 478 kts | 258° |
| 2026-05-06 18:16 | 34.71033 | 134.21731 | 34083 ft | 474 kts | 258° |
| 2026-05-06 18:16 | 34.69556 | 134.14000 | 34082 ft | 471 kts | 258° |
| 2026-05-06 18:17 | 34.68056 | 134.06253 | 34083 ft | 472 kts | 258° |
| 2026-05-06 18:17 | 34.66376 | 133.98534 | 34083 ft | 472 kts | 253° |
| 2026-05-06 18:18 | 34.64073 | 133.91046 | 34083 ft | 473 kts | 250° |
| 2026-05-06 18:18 | 34.61655 | 133.83611 | 34083 ft | 473 kts | 250° |
| 2026-05-06 18:19 | 34.59320 | 133.76128 | 34082 ft | 473 kts | 251° |
| 2026-05-06 18:19 | 34.57010 | 133.68713 | 34083 ft | 473 kts | 251° |
| 2026-05-06 18:20 | 34.54681 | 133.61238 | 34083 ft | 473 kts | 251° |
| 2026-05-06 18:20 | 34.52262 | 133.53816 | 34083 ft | 473 kts | 250° |
| 2026-05-06 18:21 | 34.49809 | 133.46405 | 34082 ft | 473 kts | 250° |
| 2026-05-06 18:21 | 34.47363 | 133.39004 | 34082 ft | 473 kts | 250° |
| 2026-05-06 18:22 | 34.45021 | 133.31548 | 34083 ft | 473 kts | 251° |
| 2026-05-06 18:22 | 34.42709 | 133.24146 | 34082 ft | 473 kts | 251° |
| 2026-05-06 18:23 | 34.40374 | 133.16712 | 34083 ft | 473 kts | 251° |
| 2026-05-06 18:23 | 34.38022 | 133.09269 | 34082 ft | 473 kts | 250° |
| 2026-05-06 18:24 | 34.35643 | 133.01837 | 34082 ft | 473 kts | 250° |
| 2026-05-06 18:24 | 34.33259 | 132.94407 | 34083 ft | 473 kts | 250° |
| 2026-05-06 18:25 | 34.30884 | 132.86990 | 34081 ft | 473 kts | 251° |
| 2026-05-06 18:25 | 34.28577 | 132.79593 | 34083 ft | 473 kts | 251° |
| 2026-05-06 18:26 | 34.26224 | 132.72166 | 34082 ft | 473 kts | 250° |
| 2026-05-06 18:26 | 34.23856 | 132.64720 | 34083 ft | 475 kts | 250° |
| 2026-05-06 18:27 | 34.21478 | 132.57254 | 34082 ft | 475 kts | 250° |
| 2026-05-06 18:27 | 34.19114 | 132.49789 | 34083 ft | 475 kts | 251° |
| 2026-05-06 18:28 | 34.16774 | 132.42320 | 34082 ft | 475 kts | 250° |
| 2026-05-06 18:28 | 34.14414 | 132.34916 | 34083 ft | 475 kts | 250° |
| 2026-05-06 18:29 | 34.12030 | 132.27470 | 34083 ft | 475 kts | 250° |
| 2026-05-06 18:29 | 34.09641 | 132.20018 | 34082 ft | 475 kts | 250° |
| 2026-05-06 18:30 | 34.07341 | 132.12550 | 34084 ft | 474 kts | 254° |
| 2026-05-06 18:30 | 34.05663 | 132.04867 | 34083 ft | 474 kts | 258° |
| 2026-05-06 18:31 | 34.04070 | 131.97155 | 34082 ft | 474 kts | 256° |
| 2026-05-06 18:31 | 34.02340 | 131.89478 | 34083 ft | 474 kts | 256° |
| 2026-05-06 18:32 | 34.00620 | 131.81848 | 34082 ft | 474 kts | 256° |
| 2026-05-06 18:32 | 33.98892 | 131.74173 | 34083 ft | 474 kts | 256° |
| 2026-05-06 18:33 | 33.97154 | 131.66500 | 34082 ft | 474 kts | 256° |
| 2026-05-06 18:33 | 33.95415 | 131.58827 | 34054 ft | 474 kts | 256° |
| 2026-05-06 18:34 | 33.93715 | 131.51152 | 34053 ft | 475 kts | 256° |
| 2026-05-06 18:34 | 33.91965 | 131.43484 | 34053 ft | 475 kts | 256° |
| 2026-05-06 18:35 | 33.90215 | 131.35869 | 34053 ft | 475 kts | 256° |
| 2026-05-06 18:35 | 33.88451 | 131.28199 | 34053 ft | 475 kts | 256° |
| 2026-05-06 18:36 | 33.86689 | 131.20545 | 34053 ft | 475 kts | 256° |
| 2026-05-06 18:36 | 33.84922 | 131.12912 | 34024 ft | 471 kts | 256° |
| 2026-05-06 18:37 | 33.83455 | 131.06600 | 34023 ft | 471 kts | 255° |
| 2026-05-06 18:37 | 33.81389 | 130.97737 | 34052 ft | 471 kts | 255° |
| 2026-05-06 18:38 | 33.79618 | 130.90156 | 34053 ft | 471 kts | 255° |
| 2026-05-06 18:38 | 33.77876 | 130.82571 | 34053 ft | 471 kts | 256° |
| 2026-05-06 18:39 | 33.76142 | 130.74980 | 34053 ft | 471 kts | 255° |
| 2026-05-06 18:40 | 33.73473 | 130.63665 | 34053 ft | 471 kts | 255° |
| 2026-05-06 18:40 | 33.71680 | 130.56096 | 34053 ft | 471 kts | 255° |
| 2026-05-06 18:41 | 33.69888 | 130.48529 | 34053 ft | 471 kts | 255° |
| 2026-05-06 18:41 | 33.67965 | 130.41013 | 34025 ft | 471 kts | 250° |
| 2026-05-06 18:42 | 33.64801 | 130.34162 | 34021 ft | 470 kts | 237° |
| 2026-05-06 18:42 | 33.60797 | 130.27937 | 34025 ft | 471 kts | 233° |
| 2026-05-06 18:43 | 33.56759 | 130.21799 | 34023 ft | 471 kts | 234° |
| 2026-05-06 18:43 | 33.52760 | 130.15568 | 34024 ft | 471 kts | 234° |
| 2026-05-06 18:44 | 33.48773 | 130.09327 | 34023 ft | 471 kts | 234° |
| 2026-05-06 18:44 | 33.44807 | 130.03082 | 34024 ft | 471 kts | 235° |
| 2026-05-06 18:45 | 33.40844 | 129.96835 | 34023 ft | 471 kts | 234° |
| 2026-05-06 18:45 | 33.36887 | 129.90592 | 34024 ft | 471 kts | 234° |
| 2026-05-06 18:46 | 33.32892 | 129.84357 | 34023 ft | 471 kts | 234° |
| 2026-05-06 18:46 | 33.28892 | 129.78141 | 34023 ft | 471 kts | 234° |
| 2026-05-06 18:47 | 33.24911 | 129.71962 | 34023 ft | 474 kts | 234° |
| 2026-05-06 18:47 | 33.21075 | 129.65557 | 34024 ft | 472 kts | 242° |
| 2026-05-06 18:48 | 33.18247 | 129.58507 | 34027 ft | 470 kts | 248° |
| 2026-05-06 18:48 | 33.15779 | 129.51278 | 34023 ft | 470 kts | 250° |
| 2026-05-06 18:49 | 33.13318 | 129.44047 | 34024 ft | 470 kts | 249° |
| 2026-05-06 18:49 | 33.10836 | 129.36825 | 34023 ft | 470 kts | 249° |
| 2026-05-06 18:50 | 33.08347 | 129.29609 | 34023 ft | 470 kts | 249° |
| 2026-05-06 18:50 | 33.05898 | 129.22434 | 34024 ft | 470 kts | 249° |
| 2026-05-06 18:51 | 33.03425 | 129.15212 | 34023 ft | 470 kts | 249° |
| 2026-05-06 18:51 | 33.00933 | 129.07997 | 34024 ft | 470 kts | 249° |
| 2026-05-06 18:52 | 32.98467 | 129.00796 | 34023 ft | 468 kts | 249° |
| 2026-05-06 18:52 | 32.96398 | 128.94847 | 34023 ft | 467 kts | 249° |
| 2026-05-06 18:53 | 32.93907 | 128.87726 | 34023 ft | 468 kts | 249° |
| 2026-05-06 18:53 | 32.91400 | 128.80570 | 34024 ft | 468 kts | 249° |
| 2026-05-06 18:54 | 32.88893 | 128.73422 | 34023 ft | 468 kts | 249° |
| 2026-05-06 18:54 | 32.85975 | 128.65119 | 34023 ft | 468 kts | 249° |
| 2026-05-06 18:55 | 32.83882 | 128.59136 | 34023 ft | 468 kts | 249° |
| 2026-05-06 18:55 | 32.81403 | 128.52025 | 34023 ft | 468 kts | 249° |
| 2026-05-06 18:56 | 32.78881 | 128.44902 | 34024 ft | 468 kts | 249° |
| 2026-05-06 18:56 | 32.76348 | 128.37770 | 34023 ft | 468 kts | 249° |
| 2026-05-06 18:57 | 32.73817 | 128.30648 | 34024 ft | 467 kts | 249° |
| 2026-05-06 18:57 | 32.71311 | 128.23603 | 34023 ft | 464 kts | 249° |
| 2026-05-06 18:58 | 32.68784 | 128.16534 | 34024 ft | 465 kts | 249° |
| 2026-05-06 18:58 | 32.66249 | 128.09463 | 34023 ft | 465 kts | 249° |
| 2026-05-06 18:59 | 32.63713 | 128.02406 | 34023 ft | 465 kts | 249° |
| 2026-05-06 18:59 | 32.61187 | 127.95391 | 34024 ft | 465 kts | 249° |
| 2026-05-06 19:00 | 32.58644 | 127.88339 | 34023 ft | 465 kts | 249° |
| 2026-05-06 19:00 | 32.56135 | 127.81263 | 34024 ft | 465 kts | 249° |
| 2026-05-06 19:01 | 32.53605 | 127.74203 | 34023 ft | 465 kts | 249° |
| 2026-05-06 19:01 | 32.51062 | 127.67153 | 34023 ft | 465 kts | 249° |
| 2026-05-06 19:02 | 32.48530 | 127.60155 | 34023 ft | 464 kts | 249° |
| 2026-05-06 19:02 | 32.45985 | 127.53136 | 34023 ft | 463 kts | 249° |
| 2026-05-06 19:03 | 32.43437 | 127.46127 | 34024 ft | 463 kts | 249° |
| 2026-05-06 19:03 | 32.40884 | 127.39118 | 34023 ft | 463 kts | 249° |
| 2026-05-06 19:04 | 32.38351 | 127.32098 | 34024 ft | 463 kts | 249° |
| 2026-05-06 19:04 | 32.35787 | 127.25098 | 34023 ft | 464 kts | 249° |
| 2026-05-06 19:05 | 32.33231 | 127.18152 | 34023 ft | 464 kts | 248° |
| 2026-05-06 19:05 | 32.30653 | 127.11159 | 34024 ft | 464 kts | 248° |
| 2026-05-06 19:06 | 32.28130 | 127.04148 | 34026 ft | 462 kts | 251° |
| 2026-05-06 19:06 | 32.26349 | 126.96868 | 34025 ft | 461 kts | 258° |
| 2026-05-06 19:07 | 32.24837 | 126.89490 | 34025 ft | 461 kts | 257° |
| 2026-05-06 19:07 | 32.23234 | 126.82226 | 34023 ft | 458 kts | 257° |
| 2026-05-06 19:08 | 32.21616 | 126.74963 | 34023 ft | 457 kts | 257° |
| 2026-05-06 19:08 | 32.19998 | 126.67696 | 34024 ft | 458 kts | 257° |
| 2026-05-06 19:09 | 32.18406 | 126.60421 | 34023 ft | 457 kts | 257° |
| 2026-05-06 19:09 | 32.16826 | 126.53135 | 34024 ft | 457 kts | 257° |
| 2026-05-06 19:10 | 32.15243 | 126.45866 | 34023 ft | 457 kts | 257° |
| 2026-05-06 19:10 | 32.13688 | 126.38586 | 34022 ft | 457 kts | 257° |
| 2026-05-06 19:11 | 32.12120 | 126.31303 | 34024 ft | 457 kts | 257° |
| 2026-05-06 19:11 | 32.10524 | 126.24039 | 34023 ft | 457 kts | 257° |
| 2026-05-06 19:12 | 32.08932 | 126.16822 | 34024 ft | 457 kts | 257° |
| 2026-05-06 19:12 | 32.07327 | 126.09556 | 34023 ft | 457 kts | 257° |
| 2026-05-06 19:13 | 32.05750 | 126.02291 | 34023 ft | 457 kts | 258° |
| 2026-05-06 19:13 | 32.04200 | 125.95017 | 34024 ft | 456 kts | 257° |
| 2026-05-06 19:14 | 32.02634 | 125.87775 | 34023 ft | 456 kts | 257° |
| 2026-05-06 19:14 | 32.01063 | 125.80525 | 34024 ft | 456 kts | 257° |
| 2026-05-06 19:15 | 31.99481 | 125.73326 | 34023 ft | 456 kts | 257° |
| 2026-05-06 19:15 | 31.97864 | 125.66095 | 33995 ft | 456 kts | 257° |
| 2026-05-06 19:16 | 31.96245 | 125.58865 | 33994 ft | 456 kts | 257° |
| 2026-05-06 19:16 | 31.94622 | 125.51634 | 33994 ft | 456 kts | 257° |
| 2026-05-06 19:17 | 31.92997 | 125.44411 | 33994 ft | 456 kts | 257° |
| 2026-05-06 19:17 | 31.91380 | 125.37188 | 33994 ft | 456 kts | 257° |
| 2026-05-06 19:18 | 31.89819 | 125.29987 | 33994 ft | 456 kts | 257° |
| 2026-05-06 19:18 | 31.88191 | 125.22763 | 33994 ft | 456 kts | 256° |
| 2026-05-06 19:19 | 31.86551 | 125.15563 | 33994 ft | 455 kts | 256° |
| 2026-05-06 19:19 | 31.84911 | 125.08372 | 33994 ft | 455 kts | 256° |
| 2026-05-06 19:20 | 31.83266 | 125.01168 | 33994 ft | 455 kts | 256° |
| 2026-05-06 19:20 | 31.81688 | 124.94006 | 33994 ft | 455 kts | 257° |
| 2026-05-06 19:21 | 31.80125 | 124.86791 | 33994 ft | 455 kts | 257° |
| 2026-05-06 19:21 | 31.78552 | 124.79586 | 33966 ft | 455 kts | 257° |
| 2026-05-06 19:22 | 31.76973 | 124.72379 | 33965 ft | 455 kts | 257° |
| 2026-05-06 19:22 | 31.75391 | 124.65183 | 33964 ft | 455 kts | 257° |
| 2026-05-06 19:23 | 31.73811 | 124.57933 | 34258 ft | 460 kts | 257° |
| 2026-05-06 19:23 | 31.73032 | 124.54296 | 34713 ft | 457 kts | 257° |
| 2026-05-06 19:23 | 31.72248 | 124.50687 | 35149 ft | 455 kts | 257° |
| 2026-05-06 19:23 | 31.71462 | 124.47093 | 35532 ft | 454 kts | 257° |
| 2026-05-06 19:24 | 31.70672 | 124.43499 | 35885 ft | 453 kts | 257° |
| 2026-05-06 19:24 | 31.69883 | 124.39919 | 36059 ft | 454 kts | 257° |
| 2026-05-06 19:24 | 31.69105 | 124.36390 | 36069 ft | 449 kts | 257° |
| 2026-05-06 19:25 | 31.67566 | 124.29312 | 36065 ft | 445 kts | 256° |
| 2026-05-06 19:25 | 31.66002 | 124.22286 | 36064 ft | 445 kts | 256° |
| 2026-05-06 19:26 | 31.64427 | 124.15260 | 36064 ft | 445 kts | 256° |
| 2026-05-06 19:26 | 31.62848 | 124.08230 | 36040 ft | 445 kts | 256° |
| 2026-05-06 19:27 | 31.61269 | 124.01203 | 36035 ft | 445 kts | 256° |
| 2026-05-06 19:27 | 31.59721 | 123.94170 | 36035 ft | 445 kts | 257° |
| 2026-05-06 19:28 | 31.58186 | 123.87172 | 36035 ft | 445 kts | 257° |
| 2026-05-06 19:28 | 31.56677 | 123.80135 | 36035 ft | 445 kts | 257° |
| 2026-05-06 19:29 | 31.55134 | 123.73106 | 36035 ft | 445 kts | 256° |
| 2026-05-06 19:29 | 31.53575 | 123.66079 | 36034 ft | 445 kts | 256° |
| 2026-05-06 19:30 | 31.52015 | 123.59064 | 36035 ft | 445 kts | 256° |
| 2026-05-06 19:30 | 31.50454 | 123.52046 | 36036 ft | 443 kts | 257° |
| 2026-05-06 19:31 | 31.48999 | 123.45062 | 36034 ft | 439 kts | 258° |
| 2026-05-06 19:31 | 31.47044 | 123.34560 | 36035 ft | 440 kts | 258° |
| 2026-05-06 19:32 | 31.45713 | 123.27571 | 36035 ft | 440 kts | 258° |
| 2026-05-06 19:32 | 31.44377 | 123.20606 | 36006 ft | 440 kts | 258° |
| 2026-05-06 19:33 | 31.43037 | 123.13620 | 36006 ft | 440 kts | 259° |
| 2026-05-06 19:33 | 31.41745 | 123.06617 | 36005 ft | 440 kts | 258° |
| 2026-05-06 19:34 | 31.40400 | 122.99626 | 36005 ft | 440 kts | 258° |
| 2026-05-06 19:34 | 31.39049 | 122.92690 | 36006 ft | 440 kts | 258° |
| 2026-05-06 19:35 | 31.37684 | 122.85701 | 36005 ft | 440 kts | 258° |
| 2026-05-06 19:35 | 31.36320 | 122.78714 | 36005 ft | 440 kts | 258° |
| 2026-05-06 19:36 | 31.35000 | 122.71721 | 36006 ft | 440 kts | 258° |
| 2026-05-06 19:36 | 31.33679 | 122.64776 | 36005 ft | 440 kts | 258° |
| 2026-05-06 19:37 | 31.32335 | 122.57799 | 36005 ft | 439 kts | 258° |
| 2026-05-06 19:37 | 31.31217 | 122.52004 | 36005 ft | 439 kts | 258° |
| 2026-05-06 19:38 | 31.29645 | 122.43855 | 36005 ft | 439 kts | 258° |
| 2026-05-06 19:38 | 31.28327 | 122.36880 | 36005 ft | 439 kts | 258° |
| 2026-05-06 19:39 | 31.27004 | 122.29906 | 36006 ft | 439 kts | 258° |
| 2026-05-06 19:39 | 31.25678 | 122.22938 | 36005 ft | 439 kts | 258° |
| 2026-05-06 19:40 | 31.24352 | 122.15988 | 36006 ft | 439 kts | 258° |
| 2026-05-06 19:40 | 31.23069 | 122.09007 | 36006 ft | 439 kts | 258° |
| 2026-05-06 19:41 | 31.21744 | 122.02026 | 36005 ft | 439 kts | 258° |
| 2026-05-06 19:41 | 31.20401 | 121.95056 | 36005 ft | 439 kts | 258° |
| 2026-05-06 19:42 | 31.19282 | 121.89269 | 36005 ft | 439 kts | 258° |
| 2026-05-06 19:42 | 31.17935 | 121.82307 | 36006 ft | 439 kts | 258° |
| 2026-05-06 19:43 | 31.16696 | 121.75320 | 36006 ft | 438 kts | 262° |
| 2026-05-06 19:43 | 31.15980 | 121.68295 | 36005 ft | 438 kts | 264° |
| 2026-05-06 19:44 | 31.15332 | 121.61206 | 36005 ft | 438 kts | 263° |
| 2026-05-06 19:44 | 31.14560 | 121.54149 | 36006 ft | 438 kts | 263° |
| 2026-05-06 19:45 | 31.13774 | 121.47099 | 36005 ft | 438 kts | 263° |
| 2026-05-06 19:45 | 31.12987 | 121.40036 | 36005 ft | 438 kts | 263° |
| 2026-05-06 19:46 | 31.12053 | 121.33007 | 36007 ft | 439 kts | 258° |
| 2026-05-06 19:46 | 31.10311 | 121.26176 | 36006 ft | 440 kts | 253° |
| 2026-05-06 19:47 | 31.08473 | 121.19376 | 36005 ft | 439 kts | 254° |
| 2026-05-06 19:47 | 31.06725 | 121.12590 | 36005 ft | 439 kts | 255° |
| 2026-05-06 19:48 | 31.05087 | 121.05724 | 36006 ft | 439 kts | 255° |
| 2026-05-06 19:48 | 31.03421 | 120.98867 | 36005 ft | 439 kts | 255° |
| 2026-05-06 19:49 | 31.01740 | 120.92034 | 36005 ft | 437 kts | 255° |
| 2026-05-06 19:49 | 31.00062 | 120.85235 | 36005 ft | 435 kts | 255° |
| 2026-05-06 19:50 | 30.98396 | 120.78493 | 36005 ft | 435 kts | 255° |
| 2026-05-06 19:50 | 30.96735 | 120.71692 | 36005 ft | 435 kts | 256° |
| 2026-05-06 19:51 | 30.95080 | 120.64900 | 36005 ft | 435 kts | 255° |
| 2026-05-06 19:51 | 30.93407 | 120.58116 | 36006 ft | 435 kts | 255° |
| 2026-05-06 19:52 | 30.91729 | 120.51334 | 36005 ft | 435 kts | 255° |
| 2026-05-06 19:52 | 30.89915 | 120.44652 | 36003 ft | 437 kts | 248° |
| 2026-05-06 19:53 | 30.88348 | 120.41597 | 36004 ft | 443 kts | 236° |
| 2026-05-06 19:53 | 30.86148 | 120.39053 | 36006 ft | 452 kts | 222° |
| 2026-05-06 19:53 | 30.80880 | 120.35004 | 36001 ft | 455 kts | 216° |
| 2026-05-06 19:54 | 30.75460 | 120.31194 | 36005 ft | 453 kts | 218° |
| 2026-05-06 19:54 | 30.70266 | 120.27076 | 36006 ft | 452 kts | 220° |
| 2026-05-06 19:55 | 30.65177 | 120.22850 | 36005 ft | 452 kts | 220° |
| 2026-05-06 19:55 | 30.60039 | 120.18632 | 36006 ft | 452 kts | 220° |
| 2026-05-06 19:56 | 30.54884 | 120.14420 | 36005 ft | 452 kts | 220° |
| 2026-05-06 19:56 | 30.49736 | 120.10218 | 36005 ft | 452 kts | 220° |
| 2026-05-06 19:57 | 30.44585 | 120.06019 | 36005 ft | 452 kts | 220° |
| 2026-05-06 19:57 | 30.39256 | 120.02084 | 36004 ft | 457 kts | 215° |
| 2026-05-06 19:58 | 30.33718 | 119.98551 | 36006 ft | 457 kts | 214° |
| 2026-05-06 19:58 | 30.28191 | 119.94929 | 36005 ft | 456 kts | 215° |
| 2026-05-06 19:59 | 30.22686 | 119.91271 | 36006 ft | 456 kts | 215° |
| 2026-05-06 19:59 | 30.17177 | 119.87618 | 36005 ft | 456 kts | 215° |
| 2026-05-06 20:00 | 30.11675 | 119.83974 | 36005 ft | 456 kts | 215° |
| 2026-05-06 20:00 | 30.06156 | 119.80323 | 36005 ft | 456 kts | 215° |
| 2026-05-06 20:01 | 30.00676 | 119.76643 | 36005 ft | 456 kts | 216° |
| 2026-05-06 20:01 | 29.95231 | 119.72981 | 36005 ft | 455 kts | 216° |
| 2026-05-06 20:02 | 29.89760 | 119.69311 | 36005 ft | 455 kts | 216° |
| 2026-05-06 20:02 | 29.84298 | 119.65619 | 36004 ft | 453 kts | 217° |
| 2026-05-06 20:03 | 29.79099 | 119.61543 | 36006 ft | 451 kts | 221° |
| 2026-05-06 20:03 | 29.73942 | 119.57399 | 36005 ft | 452 kts | 219° |
| 2026-05-06 20:04 | 29.68765 | 119.53364 | 36006 ft | 452 kts | 219° |
| 2026-05-06 20:04 | 29.63604 | 119.49235 | 36005 ft | 449 kts | 223° |
| 2026-05-06 20:05 | 29.59259 | 119.44213 | 36008 ft | 442 kts | 234° |
| 2026-05-06 20:05 | 29.55229 | 119.38867 | 36006 ft | 443 kts | 232° |
| 2026-05-06 20:06 | 29.51100 | 119.33606 | 36005 ft | 443 kts | 232° |
| 2026-05-06 20:06 | 29.46976 | 119.28362 | 36006 ft | 443 kts | 232° |
| 2026-05-06 20:07 | 29.42834 | 119.23109 | 36005 ft | 443 kts | 232° |
| 2026-05-06 20:07 | 29.38729 | 119.17906 | 36005 ft | 442 kts | 232° |
| 2026-05-06 20:08 | 29.34603 | 119.12675 | 36005 ft | 442 kts | 232° |
| 2026-05-06 20:08 | 29.30470 | 119.07454 | 36005 ft | 442 kts | 232° |
| 2026-05-06 20:09 | 29.26329 | 119.02238 | 36006 ft | 442 kts | 232° |
| 2026-05-06 20:09 | 29.22179 | 118.97017 | 36005 ft | 442 kts | 232° |
| 2026-05-06 20:10 | 29.18025 | 118.91809 | 36005 ft | 442 kts | 232° |
| 2026-05-06 20:10 | 29.13894 | 118.86639 | 36005 ft | 442 kts | 232° |
| 2026-05-06 20:11 | 29.09736 | 118.81440 | 36005 ft | 442 kts | 232° |
| 2026-05-06 20:11 | 29.05581 | 118.76252 | 36006 ft | 442 kts | 232° |
| 2026-05-06 20:12 | 29.01425 | 118.71068 | 36005 ft | 442 kts | 232° |
| 2026-05-06 20:12 | 28.97283 | 118.65859 | 36005 ft | 442 kts | 232° |
| 2026-05-06 20:13 | 28.93137 | 118.60670 | 36005 ft | 442 kts | 233° |
| 2026-05-06 20:13 | 28.88978 | 118.55484 | 36003 ft | 444 kts | 233° |
| 2026-05-06 20:14 | 28.84783 | 118.50261 | 36004 ft | 448 kts | 232° |
| 2026-05-06 20:14 | 28.80614 | 118.45083 | 36008 ft | 444 kts | 232° |
| 2026-05-06 20:15 | 28.76443 | 118.39904 | 36006 ft | 443 kts | 232° |
| 2026-05-06 20:15 | 28.72253 | 118.34711 | 36033 ft | 447 kts | 232° |
| 2026-05-06 20:16 | 28.68036 | 118.29493 | 36036 ft | 446 kts | 232° |
| 2026-05-06 20:16 | 28.63878 | 118.24353 | 36037 ft | 437 kts | 233° |
| 2026-05-06 20:17 | 28.59759 | 118.19238 | 36035 ft | 441 kts | 232° |
| 2026-05-06 20:17 | 28.55576 | 118.14079 | 36036 ft | 446 kts | 232° |
| 2026-05-06 20:18 | 28.51336 | 118.08871 | 36033 ft | 450 kts | 232° |
| 2026-05-06 20:18 | 28.47082 | 118.03646 | 36033 ft | 449 kts | 232° |
| 2026-05-06 20:19 | 28.42893 | 117.98507 | 36031 ft | 443 kts | 232° |
| 2026-05-06 20:19 | 28.38665 | 117.93424 | 36032 ft | 444 kts | 231° |
| 2026-05-06 20:20 | 28.34322 | 117.88327 | 36039 ft | 451 kts | 231° |
| 2026-05-06 20:20 | 28.29960 | 117.83195 | 36035 ft | 451 kts | 231° |
| 2026-05-06 20:21 | 28.25652 | 117.78087 | 36033 ft | 449 kts | 232° |
| 2026-05-06 20:21 | 28.21315 | 117.72966 | 36033 ft | 446 kts | 231° |
| 2026-05-06 20:22 | 28.17011 | 117.67912 | 36032 ft | 451 kts | 231° |
| 2026-05-06 20:22 | 28.12626 | 117.62772 | 36035 ft | 454 kts | 231° |
| 2026-05-06 20:23 | 28.08247 | 117.57645 | 36033 ft | 448 kts | 231° |
| 2026-05-06 20:23 | 28.03945 | 117.52608 | 36034 ft | 447 kts | 231° |
| 2026-05-06 20:24 | 27.99602 | 117.47536 | 36036 ft | 449 kts | 231° |
| 2026-05-06 20:24 | 27.95230 | 117.42435 | 36037 ft | 453 kts | 231° |
| 2026-05-06 20:25 | 27.90840 | 117.37319 | 36031 ft | 451 kts | 231° |
| 2026-05-06 20:25 | 27.86474 | 117.32238 | 36035 ft | 451 kts | 231° |
| 2026-05-06 20:26 | 27.82073 | 117.27119 | 36035 ft | 455 kts | 231° |
| 2026-05-06 20:26 | 27.77706 | 117.22007 | 36035 ft | 455 kts | 231° |
| 2026-05-06 20:27 | 27.73307 | 117.16874 | 36035 ft | 454 kts | 231° |
| 2026-05-06 20:27 | 27.68907 | 117.11746 | 36035 ft | 455 kts | 231° |
| 2026-05-06 20:28 | 27.64493 | 117.06635 | 36035 ft | 455 kts | 231° |
| 2026-05-06 20:28 | 27.60073 | 117.01528 | 36035 ft | 455 kts | 231° |
| 2026-05-06 20:29 | 27.56395 | 116.97281 | 36035 ft | 455 kts | 231° |
| 2026-05-06 20:29 | 27.51971 | 116.92175 | 36035 ft | 455 kts | 231° |
| 2026-05-06 20:30 | 27.45378 | 116.84469 | 36035 ft | 454 kts | 231° |
| 2026-05-06 20:31 | 27.41028 | 116.79362 | 36034 ft | 454 kts | 231° |
| 2026-05-06 20:31 | 27.36647 | 116.74230 | 36035 ft | 454 kts | 231° |
| 2026-05-06 20:32 | 27.31506 | 116.68242 | 36035 ft | 456 kts | 231° |
| 2026-05-06 20:32 | 27.27835 | 116.63972 | 36035 ft | 457 kts | 231° |
| 2026-05-06 20:33 | 27.23414 | 116.58835 | 36035 ft | 457 kts | 231° |
| 2026-05-06 20:33 | 27.19017 | 116.53679 | 36035 ft | 456 kts | 232° |
| 2026-05-06 20:34 | 27.14717 | 116.48448 | 36035 ft | 456 kts | 232° |
| 2026-05-06 20:34 | 27.10425 | 116.43208 | 36035 ft | 456 kts | 232° |
| 2026-05-06 20:35 | 27.06117 | 116.37996 | 36035 ft | 456 kts | 232° |
| 2026-05-06 20:35 | 27.01817 | 116.32814 | 36035 ft | 456 kts | 232° |
| 2026-05-06 20:36 | 26.97495 | 116.27609 | 36035 ft | 456 kts | 232° |
| 2026-05-06 20:36 | 26.93165 | 116.22399 | 36035 ft | 456 kts | 232° |
| 2026-05-06 20:37 | 26.88858 | 116.17179 | 36035 ft | 456 kts | 232° |
| 2026-05-06 20:37 | 26.84562 | 116.11958 | 36035 ft | 456 kts | 232° |
| 2026-05-06 20:38 | 26.80259 | 116.06737 | 36035 ft | 456 kts | 232° |
| 2026-05-06 20:38 | 26.75936 | 116.01500 | 36035 ft | 458 kts | 232° |
| 2026-05-06 20:39 | 26.71602 | 115.96257 | 36035 ft | 458 kts | 232° |
| 2026-05-06 20:39 | 26.67307 | 115.91050 | 36035 ft | 458 kts | 232° |
| 2026-05-06 20:40 | 26.62993 | 115.85798 | 36035 ft | 458 kts | 232° |
| 2026-05-06 20:40 | 26.58668 | 115.80558 | 36035 ft | 458 kts | 232° |
| 2026-05-06 20:41 | 26.54367 | 115.75360 | 36035 ft | 458 kts | 232° |
| 2026-05-06 20:41 | 26.50025 | 115.70123 | 36035 ft | 458 kts | 232° |
| 2026-05-06 20:42 | 26.45694 | 115.64905 | 36035 ft | 458 kts | 232° |
| 2026-05-06 20:42 | 26.41362 | 115.59694 | 36035 ft | 458 kts | 232° |
| 2026-05-06 20:43 | 26.37023 | 115.54480 | 36035 ft | 458 kts | 232° |
| 2026-05-06 20:43 | 26.32712 | 115.49306 | 36035 ft | 458 kts | 232° |
| 2026-05-06 20:44 | 26.28377 | 115.44109 | 36037 ft | 458 kts | 232° |
| 2026-05-06 20:44 | 26.24018 | 115.38889 | 36033 ft | 462 kts | 232° |
| 2026-05-06 20:45 | 26.19653 | 115.33668 | 36040 ft | 459 kts | 232° |
| 2026-05-06 20:45 | 26.15320 | 115.28493 | 36034 ft | 456 kts | 232° |
| 2026-05-06 20:46 | 26.10976 | 115.23308 | 36034 ft | 458 kts | 232° |
| 2026-05-06 20:46 | 26.06616 | 115.18111 | 36038 ft | 458 kts | 232° |
| 2026-05-06 20:47 | 26.02262 | 115.12922 | 36035 ft | 459 kts | 232° |
| 2026-05-06 20:47 | 25.97917 | 115.07735 | 36033 ft | 458 kts | 232° |
| 2026-05-06 20:48 | 25.93587 | 115.02596 | 36040 ft | 458 kts | 232° |
| 2026-05-06 20:48 | 25.89210 | 114.97413 | 36033 ft | 462 kts | 232° |
| 2026-05-06 20:49 | 25.84823 | 114.92222 | 36035 ft | 460 kts | 232° |
| 2026-05-06 20:49 | 25.80039 | 114.87482 | 36035 ft | 469 kts | 218° |
| 2026-05-06 20:49 | 25.77088 | 114.85860 | 36036 ft | 481 kts | 205° |
| 2026-05-06 20:50 | 25.73815 | 114.84923 | 36044 ft | 490 kts | 196° |
| 2026-05-06 20:50 | 25.67022 | 114.83794 | 36031 ft | 493 kts | 195° |
| 2026-05-06 20:51 | 25.60331 | 114.82429 | 35902 ft | 482 kts | 198° |
| 2026-05-06 20:51 | 25.57091 | 114.81646 | 35613 ft | 472 kts | 199° |
| 2026-05-06 20:51 | 25.53940 | 114.80853 | 35038 ft | 470 kts | 199° |
| 2026-05-06 20:51 | 25.50730 | 114.80048 | 34266 ft | 473 kts | 198° |
| 2026-05-06 20:52 | 25.47504 | 114.79245 | 33438 ft | 478 kts | 198° |
| 2026-05-06 20:52 | 25.44244 | 114.78432 | 32621 ft | 481 kts | 198° |
| 2026-05-06 20:52 | 25.40972 | 114.77619 | 31796 ft | 483 kts | 198° |
| 2026-05-06 20:52 | 25.37682 | 114.76803 | 31059 ft | 483 kts | 197° |
| 2026-05-06 20:53 | 25.34408 | 114.75993 | 30435 ft | 480 kts | 197° |
| 2026-05-06 20:53 | 25.31156 | 114.75189 | 29877 ft | 476 kts | 197° |
| 2026-05-06 20:53 | 25.27935 | 114.74394 | 29335 ft | 472 kts | 197° |
| 2026-05-06 20:53 | 25.24742 | 114.73606 | 28744 ft | 468 kts | 197° |
| 2026-05-06 20:54 | 25.21578 | 114.72826 | 28158 ft | 464 kts | 197° |
| 2026-05-06 20:54 | 25.18440 | 114.72052 | 27578 ft | 460 kts | 197° |
| 2026-05-06 20:54 | 25.15328 | 114.71281 | 27009 ft | 456 kts | 196° |
| 2026-05-06 20:54 | 25.12240 | 114.70520 | 26443 ft | 453 kts | 196° |
| 2026-05-06 20:55 | 25.09218 | 114.69777 | 25894 ft | 449 kts | 196° |
| 2026-05-06 20:55 | 25.06177 | 114.69030 | 25413 ft | 444 kts | 196° |
| 2026-05-06 20:55 | 25.03169 | 114.68291 | 24992 ft | 440 kts | 196° |
| 2026-05-06 20:55 | 25.00174 | 114.67557 | 24568 ft | 440 kts | 196° |
| 2026-05-06 20:56 | 24.97193 | 114.66825 | 24142 ft | 438 kts | 196° |
| 2026-05-06 20:56 | 24.94256 | 114.66105 | 23719 ft | 436 kts | 196° |
| 2026-05-06 20:56 | 24.91263 | 114.65372 | 23289 ft | 433 kts | 195° |
| 2026-05-06 20:56 | 24.88362 | 114.64661 | 22870 ft | 431 kts | 195° |
| 2026-05-06 20:57 | 24.85442 | 114.63944 | 22445 ft | 429 kts | 195° |
| 2026-05-06 20:57 | 24.82544 | 114.63231 | 22019 ft | 426 kts | 195° |
| 2026-05-06 20:57 | 24.79654 | 114.62521 | 21593 ft | 423 kts | 195° |
| 2026-05-06 20:57 | 24.76788 | 114.61818 | 21169 ft | 420 kts | 195° |
| 2026-05-06 20:58 | 24.73949 | 114.61101 | 20747 ft | 416 kts | 197° |
| 2026-05-06 20:58 | 24.71200 | 114.60136 | 20317 ft | 413 kts | 203° |
| 2026-05-06 20:58 | 24.68570 | 114.58895 | 19888 ft | 409 kts | 207° |
| 2026-05-06 20:58 | 24.66016 | 114.57530 | 19483 ft | 406 kts | 209° |
| 2026-05-06 20:59 | 24.61463 | 114.54775 | 18787 ft | 400 kts | 212° |
| 2026-05-06 20:59 | 24.59067 | 114.53237 | 18413 ft | 398 kts | 213° |
| 2026-05-06 20:59 | 24.56704 | 114.51732 | 18075 ft | 395 kts | 212° |
| 2026-05-06 21:00 | 24.54298 | 114.50210 | 17771 ft | 393 kts | 212° |
| 2026-05-06 21:00 | 24.51963 | 114.48737 | 17472 ft | 391 kts | 212° |
| 2026-05-06 21:00 | 24.49606 | 114.47252 | 17171 ft | 390 kts | 212° |
| 2026-05-06 21:00 | 24.47261 | 114.45775 | 16872 ft | 388 kts | 212° |
| 2026-05-06 21:01 | 24.44936 | 114.44311 | 16571 ft | 386 kts | 212° |
| 2026-05-06 21:01 | 24.42598 | 114.42841 | 16268 ft | 384 kts | 212° |
| 2026-05-06 21:01 | 24.40287 | 114.41387 | 15969 ft | 382 kts | 212° |
| 2026-05-06 21:01 | 24.37987 | 114.39946 | 15665 ft | 380 kts | 212° |
| 2026-05-06 21:02 | 24.35694 | 114.38506 | 15365 ft | 378 kts | 212° |
| 2026-05-06 21:02 | 24.33417 | 114.37071 | 15066 ft | 377 kts | 212° |
| 2026-05-06 21:02 | 24.31145 | 114.35643 | 14763 ft | 375 kts | 212° |
| 2026-05-06 21:02 | 24.28888 | 114.34229 | 14461 ft | 373 kts | 212° |
| 2026-05-06 21:03 | 24.26636 | 114.32820 | 14162 ft | 371 kts | 212° |
| 2026-05-06 21:03 | 24.24400 | 114.31422 | 13860 ft | 369 kts | 212° |
| 2026-05-06 21:03 | 24.22169 | 114.30028 | 13558 ft | 368 kts | 212° |
| 2026-05-06 21:03 | 24.19947 | 114.28639 | 13258 ft | 366 kts | 212° |
| 2026-05-06 21:04 | 24.17740 | 114.27261 | 12957 ft | 365 kts | 212° |
| 2026-05-06 21:04 | 24.15537 | 114.25886 | 12654 ft | 363 kts | 212° |
| 2026-05-06 21:04 | 24.13344 | 114.24517 | 12354 ft | 361 kts | 212° |
| 2026-05-06 21:04 | 24.11237 | 114.23052 | 12051 ft | 357 kts | 219° |
| 2026-05-06 21:05 | 24.09474 | 114.21215 | 11752 ft | 354 kts | 230° |
| 2026-05-06 21:05 | 24.07950 | 114.19118 | 11460 ft | 352 kts | 233° |
| 2026-05-06 21:05 | 24.06501 | 114.16960 | 11161 ft | 351 kts | 237° |
| 2026-05-06 21:05 | 24.05182 | 114.14713 | 10860 ft | 349 kts | 239° |
| 2026-05-06 21:06 | 24.03972 | 114.12431 | 10808 ft | 346 kts | 242° |
| 2026-05-06 21:06 | 24.02841 | 114.10099 | 10745 ft | 347 kts | 243° |
| 2026-05-06 21:06 | 24.01735 | 114.07752 | 10735 ft | 346 kts | 243° |
| 2026-05-06 21:06 | 24.00617 | 114.05415 | 10734 ft | 347 kts | 243° |
| 2026-05-06 21:07 | 23.99487 | 114.03080 | 10735 ft | 347 kts | 243° |
| 2026-05-06 21:07 | 23.98373 | 114.00782 | 10735 ft | 347 kts | 243° |
| 2026-05-06 21:07 | 23.97244 | 113.98453 | 10735 ft | 347 kts | 243° |
| 2026-05-06 21:07 | 23.96116 | 113.96121 | 10735 ft | 347 kts | 243° |
| 2026-05-06 21:08 | 23.94990 | 113.93791 | 10735 ft | 347 kts | 243° |
| 2026-05-06 21:08 | 23.93861 | 113.91463 | 10735 ft | 347 kts | 243° |
| 2026-05-06 21:08 | 23.92731 | 113.89140 | 10690 ft | 346 kts | 243° |
| 2026-05-06 21:08 | 23.91601 | 113.86818 | 10459 ft | 344 kts | 243° |
| 2026-05-06 21:09 | 23.90478 | 113.84512 | 10206 ft | 343 kts | 243° |
| 2026-05-06 21:09 | 23.89369 | 113.82235 | 10057 ft | 335 kts | 243° |
| 2026-05-06 21:09 | 23.88286 | 113.80012 | 9877 ft | 326 kts | 243° |
| 2026-05-06 21:09 | 23.87241 | 113.77860 | 9777 ft | 314 kts | 243° |
| 2026-05-06 21:10 | 23.86239 | 113.75795 | 9704 ft | 301 kts | 243° |
| 2026-05-06 21:10 | 23.85287 | 113.73839 | 9633 ft | 290 kts | 243° |
| 2026-05-06 21:10 | 23.84352 | 113.71922 | 9566 ft | 281 kts | 243° |
| 2026-05-06 21:10 | 23.83447 | 113.70067 | 9480 ft | 273 kts | 243° |
| 2026-05-06 21:11 | 23.82561 | 113.68254 | 9326 ft | 267 kts | 243° |
| 2026-05-06 21:11 | 23.81690 | 113.66470 | 9111 ft | 265 kts | 242° |
| 2026-05-06 21:11 | 23.80828 | 113.64706 | 8907 ft | 262 kts | 242° |
| 2026-05-06 21:11 | 23.79847 | 113.63031 | 8842 ft | 262 kts | 232° |
| 2026-05-06 21:12 | 23.78535 | 113.61633 | 8866 ft | 265 kts | 221° |
| 2026-05-06 21:12 | 23.77052 | 113.60430 | 8875 ft | 266 kts | 217° |
| 2026-05-06 21:12 | 23.75502 | 113.59326 | 8871 ft | 266 kts | 214° |
| 2026-05-06 21:12 | 23.73916 | 113.58273 | 8871 ft | 266 kts | 213° |
| 2026-05-06 21:13 | 23.72334 | 113.57229 | 8870 ft | 266 kts | 213° |
| 2026-05-06 21:13 | 23.70773 | 113.56187 | 8870 ft | 266 kts | 213° |
| 2026-05-06 21:13 | 23.69196 | 113.55125 | 8870 ft | 266 kts | 214° |
| 2026-05-06 21:13 | 23.67623 | 113.54060 | 8871 ft | 266 kts | 214° |
| 2026-05-06 21:14 | 23.66047 | 113.52993 | 8871 ft | 266 kts | 214° |
| 2026-05-06 21:14 | 23.64476 | 113.51927 | 8870 ft | 266 kts | 214° |
| 2026-05-06 21:14 | 23.62902 | 113.50860 | 8870 ft | 266 kts | 214° |
| 2026-05-06 21:14 | 23.61331 | 113.49795 | 8870 ft | 266 kts | 213° |
| 2026-05-06 21:15 | 23.59688 | 113.48856 | 8870 ft | 268 kts | 206° |
| 2026-05-06 21:15 | 23.57927 | 113.48160 | 8871 ft | 269 kts | 200° |
| 2026-05-06 21:15 | 23.56151 | 113.47591 | 8870 ft | 269 kts | 198° |
| 2026-05-06 21:15 | 23.54338 | 113.47080 | 8870 ft | 270 kts | 197° |
| 2026-05-06 21:16 | 23.52513 | 113.46593 | 8870 ft | 270 kts | 196° |
| 2026-05-06 21:16 | 23.50692 | 113.46107 | 8863 ft | 269 kts | 197° |
| 2026-05-06 21:16 | 23.48875 | 113.45619 | 8795 ft | 269 kts | 197° |
| 2026-05-06 21:16 | 23.47060 | 113.45130 | 8691 ft | 267 kts | 197° |
| 2026-05-06 21:17 | 23.45260 | 113.44644 | 8461 ft | 266 kts | 197° |
| 2026-05-06 21:17 | 23.43464 | 113.44158 | 8206 ft | 265 kts | 197° |
| 2026-05-06 21:17 | 23.41670 | 113.43672 | 7961 ft | 264 kts | 196° |
| 2026-05-06 21:17 | 23.39914 | 113.43197 | 7906 ft | 256 kts | 197° |
| 2026-05-06 21:18 | 23.38215 | 113.42737 | 7811 ft | 249 kts | 197° |
| 2026-05-06 21:18 | 23.36531 | 113.42281 | 7561 ft | 249 kts | 197° |
| 2026-05-06 21:18 | 23.34851 | 113.41826 | 7307 ft | 249 kts | 196° |
| 2026-05-06 21:18 | 23.33171 | 113.41371 | 7060 ft | 249 kts | 196° |
| 2026-05-06 21:19 | 23.31498 | 113.40918 | 6942 ft | 248 kts | 196° |
| 2026-05-06 21:19 | 23.29813 | 113.40462 | 6908 ft | 248 kts | 196° |
| 2026-05-06 21:19 | 23.28167 | 113.40017 | 6920 ft | 247 kts | 196° |
| 2026-05-06 21:19 | 23.26506 | 113.39568 | 6921 ft | 243 kts | 196° |
| 2026-05-06 21:20 | 23.24875 | 113.39127 | 6810 ft | 239 kts | 196° |
| 2026-05-06 21:20 | 23.23263 | 113.38690 | 6592 ft | 236 kts | 196° |
| 2026-05-06 21:20 | 23.21671 | 113.38259 | 6342 ft | 234 kts | 196° |
| 2026-05-06 21:20 | 23.20115 | 113.37838 | 6095 ft | 233 kts | 196° |
| 2026-05-06 21:21 | 23.18547 | 113.37414 | 5845 ft | 232 kts | 195° |
| 2026-05-06 21:21 | 23.16985 | 113.36992 | 5594 ft | 230 kts | 195° |
| 2026-05-06 21:21 | 23.15431 | 113.36572 | 5343 ft | 229 kts | 195° |
| 2026-05-06 21:21 | 23.13886 | 113.36155 | 5092 ft | 228 kts | 195° |
| 2026-05-06 21:22 | 23.12348 | 113.35740 | 4841 ft | 227 kts | 195° |
| 2026-05-06 21:22 | 23.10821 | 113.35328 | 4631 ft | 223 kts | 195° |
| 2026-05-06 21:22 | 23.09322 | 113.34923 | 4373 ft | 221 kts | 195° |
| 2026-05-06 21:22 | 23.07862 | 113.34444 | 4119 ft | 217 kts | 204° |
| 2026-05-06 21:23 | 23.06714 | 113.33457 | 3876 ft | 210 kts | 233° |
| 2026-05-06 21:23 | 23.06223 | 113.32011 | 3725 ft | 202 kts | 257° |
| 2026-05-06 21:23 | 23.06021 | 113.30522 | 3543 ft | 196 kts | 259° |
| 2026-05-06 21:23 | 23.05746 | 113.29100 | 3411 ft | 189 kts | 257° |
| 2026-05-06 21:24 | 23.05460 | 113.27723 | 3223 ft | 185 kts | 257° |
| 2026-05-06 21:24 | 23.05168 | 113.26376 | 3053 ft | 181 kts | 257° |
| 2026-05-06 21:24 | 23.04877 | 113.25055 | 2998 ft | 183 kts | 257° |
| 2026-05-06 21:24 | 23.04710 | 113.23695 | 2992 ft | 182 kts | 271° |
| 2026-05-06 21:25 | 23.05155 | 113.22421 | 2973 ft | 186 kts | 306° |
| 2026-05-06 21:25 | 23.06255 | 113.21704 | 3003 ft | 189 kts | 340° |
| 2026-05-06 21:25 | 23.07568 | 113.21549 | 3028 ft | 191 kts | 354° |
| 2026-05-06 21:25 | 23.08885 | 113.21389 | 3008 ft | 190 kts | 349° |
| 2026-05-06 21:26 | 23.10193 | 113.21189 | 3000 ft | 189 kts | 350° |
| 2026-05-06 21:26 | 23.11487 | 113.20958 | 3002 ft | 188 kts | 347° |
| 2026-05-06 21:26 | 23.12800 | 113.20853 | 3007 ft | 191 kts | 359° |
| 2026-05-06 21:26 | 23.14117 | 113.21069 | 3006 ft | 192 kts | 8° |
| 2026-05-06 21:27 | 23.15425 | 113.21403 | 3001 ft | 192 kts | 12° |
| 2026-05-06 21:27 | 23.16720 | 113.21761 | 2998 ft | 192 kts | 12° |
| 2026-05-06 21:27 | 23.18016 | 113.22117 | 2999 ft | 192 kts | 12° |
| 2026-05-06 21:27 | 23.19293 | 113.22464 | 3000 ft | 192 kts | 12° |
| 2026-05-06 21:28 | 23.20589 | 113.22814 | 3000 ft | 192 kts | 12° |
| 2026-05-06 21:28 | 23.21886 | 113.23164 | 3000 ft | 192 kts | 11° |
| 2026-05-06 21:28 | 23.23182 | 113.23514 | 3000 ft | 192 kts | 11° |
| 2026-05-06 21:28 | 23.24490 | 113.23866 | 2805 ft | 194 kts | 12° |
| 2026-05-06 21:29 | 23.25797 | 113.24219 | 2542 ft | 191 kts | 12° |
| 2026-05-06 21:29 | 23.27058 | 113.24559 | 2278 ft | 182 kts | 12° |
| 2026-05-06 21:29 | 23.28260 | 113.24883 | 2032 ft | 174 kts | 12° |
| 2026-05-06 21:29 | 23.29417 | 113.25195 | 1802 ft | 169 kts | 12° |
| 2026-05-06 21:30 | 23.30538 | 113.25497 | 1578 ft | 162 kts | 13° |
| 2026-05-06 21:30 | 23.31607 | 113.25786 | 1370 ft | 154 kts | 13° |
| 2026-05-06 21:30 | 23.32634 | 113.26063 | 1190 ft | 149 kts | 13° |
| 2026-05-06 21:30 | 23.33613 | 113.26327 | 1030 ft | 144 kts | 14° |
| 2026-05-06 21:31 | 23.34597 | 113.26593 | 805 ft | 143 kts | 14° |
| 2026-05-06 21:31 | 23.35551 | 113.26851 | 585 ft | 142 kts | 14° |
| 2026-05-06 21:31 | 23.36510 | 113.27109 | 389 ft | 142 kts | 13° |
| 2026-05-06 21:31 | 23.37468 | 113.27366 | 210 ft | 142 kts | 14° |
| 2026-05-06 21:32 | 23.38423 | 113.27625 | 73 ft | 140 kts | 14° |
| 2026-05-06 21:32 | 23.39668 | 113.27958 | 64 ft | 49 kts | 13° |
| 2026-05-06 21:32 | 23.39931 | 113.28031 | 64 ft | 30 kts | 14° |
| 2026-05-06 21:33 | 23.40110 | 113.28081 | 64 ft | 23 kts | 15° |
| 2026-05-06 21:33 | 23.40231 | 113.28152 | 64 ft | 17 kts | 39° |
| 2026-05-06 21:33 | 23.40309 | 113.28222 | 64 ft | 12 kts | 40° |
| 2026-05-06 21:33 | 23.40364 | 113.28272 | 64 ft | 10 kts | 39° |
| 2026-05-06 21:34 | 23.40430 | 113.28328 | 64 ft | 14 kts | 31° |
| 2026-05-06 21:34 | 23.40527 | 113.28365 | 64 ft | 15 kts | 14° |
| 2026-05-06 21:34 | 23.40630 | 113.28394 | 64 ft | 16 kts | 14° |
| 2026-05-06 21:34 | 23.40703 | 113.28414 | 64 ft | 16 kts | 14° |
| 2026-05-06 21:35 | 23.40854 | 113.28453 | 64 ft | 17 kts | 13° |
| 2026-05-06 21:35 | 23.40920 | 113.28486 | 64 ft | 6 kts | 60° |
| 2026-05-06 21:35 | 23.40918 | 113.28541 | 64 ft | 9 kts | 102° |
| 2026-05-06 21:35 | 23.40907 | 113.28593 | 64 ft | 12 kts | 103° |
| 2026-05-06 21:36 | 23.40886 | 113.28690 | 64 ft | 15 kts | 103° |
| 2026-05-06 21:36 | 23.40861 | 113.28807 | 64 ft | 16 kts | 103° |
| 2026-05-06 21:36 | 23.40856 | 113.28892 | 64 ft | 6 kts | 62° |
| 2026-05-06 21:36 | 23.40899 | 113.28912 | 64 ft | 8 kts | 12° |
| 2026-05-06 21:37 | 23.40967 | 113.28928 | 64 ft | 12 kts | 13° |
| 2026-05-06 21:37 | 23.41063 | 113.28954 | 64 ft | 16 kts | 14° |
| 2026-05-06 21:37 | 23.41181 | 113.28986 | 64 ft | 19 kts | 14° |
| 2026-05-06 21:37 | 23.41312 | 113.29022 | 64 ft | 19 kts | 14° |
| 2026-05-06 21:38 | 23.41439 | 113.29057 | 64 ft | 19 kts | 14° |
| 2026-05-06 21:38 | 23.41562 | 113.29091 | 64 ft | 18 kts | 14° |
| 2026-05-06 21:38 | 23.41678 | 113.29126 | 64 ft | 15 kts | 22° |
| 2026-05-06 21:38 | 23.41752 | 113.29199 | 64 ft | 15 kts | 63° |
| 2026-05-06 21:39 | 23.41758 | 113.29303 | 64 ft | 14 kts | 102° |
| 2026-05-06 21:39 | 23.41733 | 113.29412 | 64 ft | 15 kts | 104° |
| 2026-05-06 21:39 | 23.41709 | 113.29518 | 64 ft | 13 kts | 104° |
| 2026-05-06 21:39 | 23.41680 | 113.29603 | 64 ft | 8 kts | 132° |
| 2026-05-06 21:40 | 23.41636 | 113.29611 | 64 ft | 8 kts | 186° |
| 2026-05-06 21:40 | 23.41574 | 113.29598 | 64 ft | 10 kts | 192° |
| 2026-05-06 21:40 | 23.41496 | 113.29578 | 64 ft | 14 kts | 193° |
| 2026-05-06 21:40 | 23.41380 | 113.29548 | 64 ft | 17 kts | 193° |
| 2026-05-06 21:41 | 23.41269 | 113.29519 | 64 ft | 16 kts | 193° |
| 2026-05-06 21:41 | 23.41166 | 113.29493 | 64 ft | 15 kts | 193° |
| 2026-05-06 21:41 | 23.41067 | 113.29490 | 64 ft | 14 kts | 169° |
| 2026-05-06 21:41 | 23.40982 | 113.29510 | 64 ft | 11 kts | 172° |
| 2026-05-06 21:42 | 23.40913 | 113.29505 | 64 ft | 10 kts | 190° |
| 2026-05-06 21:42 | 23.40845 | 113.29489 | 64 ft | 10 kts | 194° |
| 2026-05-06 21:42 | 23.40778 | 113.29470 | 64 ft | 10 kts | 194° |
| 2026-05-06 21:42 | 23.40712 | 113.29456 | 64 ft | 9 kts | 174° |
| 2026-05-06 21:43 | 23.40676 | 113.29502 | 64 ft | 9 kts | 107° |
| 2026-05-06 21:43 | 23.40660 | 113.29567 | 64 ft | 9 kts | 104° |
| 2026-05-06 21:43 | 23.40644 | 113.29636 | 64 ft | 10 kts | 104° |
| 2026-05-06 21:43 | 23.40626 | 113.29710 | 64 ft | 11 kts | 104° |
| 2026-05-06 21:44 | 23.40601 | 113.29817 | 64 ft | 18 kts | 104° |
| 2026-05-06 21:44 | 23.40568 | 113.29959 | 64 ft | 20 kts | 104° |
| 2026-05-06 21:44 | 23.40536 | 113.30098 | 64 ft | 18 kts | 104° |
| 2026-05-06 21:44 | 23.40505 | 113.30233 | 64 ft | 20 kts | 104° |
| 2026-05-06 21:45 | 23.40471 | 113.30381 | 64 ft | 20 kts | 104° |
| 2026-05-06 21:45 | 23.40439 | 113.30520 | 64 ft | 18 kts | 104° |
| 2026-05-06 21:45 | 23.40409 | 113.30647 | 64 ft | 17 kts | 104° |
| 2026-05-06 21:45 | 23.40381 | 113.30767 | 64 ft | 16 kts | 104° |
| 2026-05-06 21:46 | 23.40355 | 113.30884 | 64 ft | 14 kts | 104° |
| 2026-05-06 21:46 | 23.40329 | 113.30955 | 64 ft | 7 kts | 134° |
| 2026-05-06 21:46 | 23.40281 | 113.30967 | 64 ft | 8 kts | 188° |
| 2026-05-06 21:46 | 23.40222 | 113.30952 | 64 ft | 11 kts | 194° |
| 2026-05-06 21:47 | 23.40120 | 113.30925 | 64 ft | 20 kts | 194° |
| 2026-05-06 21:47 | 23.39977 | 113.30886 | 64 ft | 20 kts | 194° |
| 2026-05-06 21:47 | 23.39846 | 113.30850 | 64 ft | 19 kts | 194° |
| 2026-05-06 21:47 | 23.39718 | 113.30815 | 64 ft | 19 kts | 194° |
| 2026-05-06 21:48 | 23.39592 | 113.30781 | 64 ft | 19 kts | 194° |
| 2026-05-06 21:48 | 23.39466 | 113.30746 | 64 ft | 19 kts | 194° |
| 2026-05-06 21:48 | 23.39339 | 113.30712 | 64 ft | 19 kts | 194° |
| 2026-05-06 21:48 | 23.39213 | 113.30679 | 64 ft | 19 kts | 192° |
| 2026-05-06 21:49 | 23.39087 | 113.30645 | 64 ft | 19 kts | 195° |
| 2026-05-06 21:49 | 23.38965 | 113.30611 | 64 ft | 18 kts | 194° |
| 2026-05-06 21:49 | 23.38844 | 113.30579 | 64 ft | 18 kts | 194° |
| 2026-05-06 21:49 | 23.38723 | 113.30546 | 64 ft | 18 kts | 194° |
| 2026-05-06 21:50 | 23.38601 | 113.30514 | 64 ft | 18 kts | 194° |
| 2026-05-06 21:50 | 23.38480 | 113.30481 | 64 ft | 18 kts | 194° |
| 2026-05-06 21:50 | 23.38360 | 113.30449 | 64 ft | 17 kts | 194° |
| 2026-05-06 21:50 | 23.38251 | 113.30420 | 64 ft | 15 kts | 194° |
| 2026-05-06 21:51 | 23.38162 | 113.30396 | 64 ft | 11 kts | 194° |
| 2026-05-06 21:51 | 23.38116 | 113.30363 | 64 ft | 6 kts | 249° |
| 2026-05-06 21:51 | 23.38117 | 113.30324 | 64 ft | 5 kts | 284° |
| 2026-05-06 21:51 | 23.38141 | 113.30292 | 64 ft | 6 kts | 327° |
| 2026-05-06 21:52 | 23.38179 | 113.30269 | 64 ft | 6 kts | 327° |
| 2026-05-06 21:52 | 23.38212 | 113.30244 | 64 ft | 5 kts | 324° |
| 2026-05-06 21:52 | 23.38240 | 113.30222 | 64 ft | 5 kts | 324° |
| 2026-05-06 21:52 | 23.38266 | 113.30203 | 64 ft | 4 kts | 324° |
| 2026-05-06 21:53 | 23.38282 | 113.30190 | 64 ft | 2 kts | 324° |
| 2026-05-06 21:53 | 23.38290 | 113.30184 | 64 ft | 0 kts | 324° |
| 2026-05-06 21:53 | 23.38291 | 113.30183 | 64 ft | 0 kts | 324° |
| 2026-05-06 21:54 | 23.38292 | 113.30183 | 64 ft | 0 kts | 324° |